createdAt,value
2019-03-12T00:01:21.147Z,26.37
2019-03-12T00:03:51.558Z,22.27
2019-03-12T00:06:21.869Z,19.93
2019-03-12T00:08:52.260Z,24.70
2019-03-12T00:11:22.615Z,19.17
2019-03-12T00:13:53.125Z,18.23
2019-03-12T00:16:23.430Z,33.27
2019-03-12T00:18:53.725Z,19.87
2019-03-12T00:21:24.125Z,15.60
2019-03-12T00:23:54.400Z,28.97
2019-03-12T00:26:24.693Z,24.67
2019-03-12T00:28:55.174Z,16.57
2019-03-12T00:31:26.541Z,30.20
2019-03-12T00:33:56.873Z,24.97
2019-03-12T00:36:27.190Z,26.70
2019-03-12T00:38:57.506Z,23.43
2019-03-12T00:41:27.734Z,24.13
2019-03-12T00:43:58.057Z,27.07
2019-03-12T00:46:28.649Z,16.83
2019-03-12T00:48:58.929Z,20.93
2019-03-12T00:51:29.268Z,23.07
2019-03-12T00:53:59.667Z,24.57
2019-03-12T00:56:30.016Z,20.93
2019-03-12T00:59:00.321Z,28.60
2019-03-12T01:01:30.642Z,14.63
2019-03-12T01:04:00.976Z,20.83
2019-03-12T01:06:31.294Z,27.43
2019-03-12T01:09:01.574Z,22.10
2019-03-12T01:11:33.503Z,28.57
2019-03-12T01:14:03.791Z,30.57
2019-03-12T01:16:35.169Z,24.70
2019-03-12T01:19:05.476Z,26.40
2019-03-12T01:21:35.834Z,23.67
2019-03-12T01:24:06.143Z,26.37
2019-03-12T01:26:36.451Z,25.40
2019-03-12T01:29:06.776Z,25.10
2019-03-12T01:31:37.135Z,36.57
2019-03-12T01:34:07.500Z,26.87
2019-03-12T01:36:37.826Z,35.20
2019-03-12T01:39:08.932Z,35.50
2019-03-12T01:41:39.325Z,35.97
2019-03-12T01:44:09.621Z,35.60
2019-03-12T01:46:39.917Z,24.23
2019-03-12T01:49:11.350Z,42.20
2019-03-12T01:51:41.660Z,38.20
2019-03-12T01:54:11.934Z,36.10
2019-03-12T01:56:42.344Z,33.27
2019-03-12T01:59:12.630Z,52.90
2019-03-12T02:01:42.979Z,28.60
2019-03-12T02:04:13.380Z,42.13
2019-03-12T02:06:43.704Z,32.47
2019-03-12T02:09:14.000Z,47.07
2019-03-12T02:11:44.464Z,28.40
2019-03-12T02:14:26.856Z,31.17
2019-03-12T02:16:57.367Z,40.23
2019-03-12T02:19:28.770Z,28.90
2019-03-12T02:21:59.056Z,37.20
2019-03-12T02:24:29.347Z,42.83
2019-03-12T02:26:59.625Z,41.10
2019-03-12T02:29:29.917Z,38.43
2019-03-12T02:32:00.295Z,31.43
2019-03-12T02:34:30.737Z,41.47
2019-03-12T02:37:01.041Z,27.37
2019-03-12T02:39:31.331Z,39.50
2019-03-12T02:42:01.618Z,29.00
2019-03-12T02:44:32.011Z,45.20
2019-03-12T02:47:02.287Z,28.97
2019-03-12T02:49:32.672Z,43.50
2019-03-12T02:52:04.546Z,40.93
2019-03-12T02:54:35.144Z,38.13
2019-03-12T02:57:05.554Z,23.80
2019-03-12T02:59:36.026Z,28.50
2019-03-12T03:02:06.314Z,42.93
2019-03-12T03:04:38.003Z,48.73
2019-03-12T03:07:42.634Z,44.90
2019-03-12T03:10:14.673Z,39.63
2019-03-12T03:12:44.962Z,30.53
2019-03-12T03:15:20.022Z,48.80
2019-03-12T03:17:50.387Z,33.43
2019-03-12T03:20:21.144Z,50.17
2019-03-12T03:22:51.587Z,47.70
2019-03-12T03:25:21.867Z,29.83
2019-03-12T03:27:52.187Z,43.40
2019-03-12T03:30:23.578Z,44.10
2019-03-12T03:32:54.262Z,45.30
2019-03-12T03:35:24.616Z,31.73
2019-03-12T03:37:54.922Z,28.07
2019-03-12T03:40:25.231Z,45.27
2019-03-12T03:42:55.611Z,39.20
2019-03-12T03:45:26.008Z,43.07
2019-03-12T03:47:56.279Z,50.80
2019-03-12T03:50:26.675Z,37.07
2019-03-12T03:52:56.996Z,47.60
2019-03-12T03:55:27.278Z,33.20
2019-03-12T03:57:57.584Z,41.53
2019-03-12T04:00:27.944Z,44.87
2019-03-12T04:02:58.295Z,31.63
2019-03-12T04:05:28.640Z,45.43
2019-03-12T04:07:59.000Z,38.33
2019-03-12T04:10:29.308Z,47.33
2019-03-12T04:12:59.684Z,43.03
2019-03-12T04:15:41.245Z,56.90
2019-03-12T04:18:11.657Z,42.93
2019-03-12T04:20:41.983Z,61.83
2019-03-12T04:23:15.865Z,49.93
2019-03-12T04:25:44.329Z,52.40
2019-03-12T04:28:14.648Z,54.33
2019-03-12T04:30:44.998Z,49.93
2019-03-12T04:33:51.960Z,52.87
2019-03-12T04:36:22.359Z,43.90
2019-03-12T04:38:52.700Z,65.33
2019-03-12T04:41:23.066Z,59.20
2019-03-12T04:43:53.411Z,68.87
2019-03-12T04:46:23.733Z,48.57
2019-03-12T04:48:54.080Z,68.93
2019-03-12T04:51:24.558Z,57.23
2019-03-12T04:53:54.892Z,71.57
2019-03-12T04:56:25.263Z,70.10
2019-03-12T04:58:55.840Z,89.70
2019-03-12T05:01:26.415Z,80.97
2019-03-12T05:03:56.790Z,80.87
2019-03-12T05:06:27.135Z,82.27
2019-03-12T05:08:57.551Z,71.33
2019-03-12T05:11:28.152Z,71.63
2019-03-12T05:14:36.126Z,64.20
2019-03-12T05:17:25.208Z,60.03
2019-03-12T05:19:55.537Z,71.30
2019-03-12T05:22:26.252Z,64.07
2019-03-12T05:24:56.565Z,61.67
2019-03-12T05:27:26.961Z,64.53
2019-03-12T05:29:57.520Z,66.77
2019-03-12T05:32:27.903Z,69.47
2019-03-12T05:34:58.223Z,58.00
2019-03-12T05:37:28.502Z,49.93
2019-03-12T05:39:58.836Z,50.73
2019-03-12T05:42:29.363Z,43.73
2019-03-12T05:44:59.702Z,57.60
2019-03-12T05:47:30.106Z,39.57
2019-03-12T05:50:00.868Z,38.90
2019-03-12T05:55:12.114Z,48.97
2019-03-12T05:57:42.741Z,35.60
2019-03-12T06:00:16.097Z,44.00
2019-03-12T06:02:46.736Z,45.80
2019-03-12T06:05:17.251Z,46.03
2019-03-12T06:07:47.782Z,36.83
2019-03-12T06:10:18.333Z,33.40
2019-03-12T06:12:48.978Z,37.67
2019-03-12T06:15:19.403Z,40.60
2019-03-12T06:17:49.744Z,34.87
2019-03-12T06:20:20.208Z,54.40
2019-03-12T06:22:50.637Z,32.20
2019-03-12T06:25:21.177Z,27.87
2019-03-12T06:27:51.805Z,30.10
2019-03-12T06:30:39.156Z,29.30
2019-03-12T06:33:15.443Z,29.47
2019-03-12T06:35:56.226Z,32.17
2019-03-12T06:38:45.573Z,30.47
2019-03-12T06:41:29.584Z,29.50
2019-03-12T06:44:34.451Z,36.47
2019-03-12T06:47:22.408Z,34.23
2019-03-12T06:50:03.252Z,54.27
2019-03-12T06:52:50.506Z,35.87
2019-03-12T06:55:55.641Z,39.07
2019-03-12T06:58:31.471Z,35.63
2019-03-12T07:01:19.251Z,29.60
2019-03-12T07:04:17.409Z,28.13
2019-03-12T07:07:17.023Z,32.73
2019-03-12T07:10:04.166Z,40.10
2019-03-12T07:12:56.958Z,25.80
2019-03-12T07:15:40.548Z,30.37
2019-03-12T07:18:33.588Z,27.40
2019-03-12T07:21:23.303Z,33.17
2019-03-12T07:24:20.208Z,29.43
2019-03-12T07:26:57.448Z,33.43
2019-03-12T07:29:46.875Z,26.20
2019-03-12T07:32:41.101Z,34.50
2019-03-12T07:35:22.636Z,31.20
2019-03-12T07:38:11.771Z,21.80
2019-03-12T07:40:56.344Z,25.00
2019-03-12T07:43:45.984Z,29.73
2019-03-12T07:46:54.051Z,23.47
2019-03-12T07:49:49.349Z,22.37
2019-03-12T07:52:38.811Z,29.10
2019-03-12T07:55:34.122Z,31.73
2019-03-12T07:58:36.000Z,22.43
2019-03-12T08:01:25.019Z,38.83
2019-03-12T08:04:08.396Z,24.00
2019-03-12T08:06:56.574Z,30.60
2019-03-12T08:09:55.931Z,25.67
2019-03-12T08:12:39.163Z,32.67
2019-03-12T08:15:38.838Z,36.67
2019-03-12T08:18:31.072Z,30.03
2019-03-12T08:21:22.504Z,25.40
2019-03-12T08:23:57.929Z,30.47
2019-03-12T08:26:50.231Z,25.47
2019-03-12T08:29:38.243Z,23.43
2019-03-12T08:32:45.736Z,27.77
2019-03-12T08:35:26.173Z,29.50
2019-03-12T08:38:11.222Z,18.30
2019-03-12T08:40:54.684Z,25.27
2019-03-12T08:43:50.035Z,18.87
2019-03-12T08:46:34.099Z,28.80
2019-03-12T08:49:30.430Z,20.40
2019-03-12T08:52:31.989Z,23.17
2019-03-12T08:55:40.018Z,29.17
2019-03-12T08:58:27.903Z,20.43
2019-03-12T09:01:23.128Z,16.30
2019-03-12T09:04:12.513Z,15.30
2019-03-12T09:07:04.990Z,19.73
2019-03-12T09:10:02.085Z,23.77
2019-03-12T09:12:55.214Z,19.93
2019-03-12T09:15:43.933Z,18.17
2019-03-12T09:18:48.749Z,20.27
2019-03-12T09:21:39.783Z,33.27
2019-03-12T09:24:27.982Z,13.67
2019-03-12T09:27:32.937Z,20.30
2019-03-12T09:30:34.563Z,18.57
2019-03-12T09:33:15.553Z,19.93
2019-03-12T09:36:00.643Z,23.57
2019-03-12T09:38:45.247Z,24.03
2019-03-12T09:41:33.225Z,23.53
2019-03-12T09:44:25.353Z,23.50
2019-03-12T09:47:02.451Z,17.70
2019-03-12T09:49:51.798Z,19.87
2019-03-12T09:52:41.423Z,18.07
2019-03-12T09:58:39.150Z,25.17
2019-03-12T10:01:46.752Z,23.23
2019-03-12T10:04:35.158Z,20.83
2019-03-12T10:07:30.002Z,16.60
2019-03-12T10:10:20.944Z,16.20
2019-03-12T10:13:16.453Z,23.37
2019-03-12T10:16:05.695Z,12.10
2019-03-12T10:18:54.394Z,16.10
2019-03-12T10:21:44.332Z,32.10
2019-03-12T10:24:44.177Z,18.97
2019-03-12T10:27:29.136Z,18.87
2019-03-12T10:30:10.415Z,18.63
2019-03-12T10:33:02.937Z,24.67
2019-03-12T10:35:41.655Z,16.67
2019-03-12T10:39:01.997Z,13.43
2019-03-12T10:41:46.435Z,19.40
2019-03-12T10:44:39.348Z,17.90
2019-03-12T10:47:16.454Z,12.73
2019-03-12T10:49:47.443Z,13.13
2019-03-12T10:52:17.943Z,18.43
2019-03-12T10:54:48.476Z,13.37
2019-03-12T10:57:21.462Z,12.37
2019-03-12T10:59:50.970Z,19.13
2019-03-12T11:02:21.712Z,11.63
2019-03-12T11:04:52.652Z,16.77
2019-03-12T11:07:23.296Z,10.37
2019-03-12T11:09:53.791Z,14.43
2019-03-12T11:12:29.738Z,15.37
2019-03-12T11:15:04.465Z,14.27
2019-03-12T11:17:48.403Z,13.30
2019-03-12T11:20:08.645Z,24.70
2019-03-12T11:22:39.380Z,13.23
2019-03-12T11:25:11.209Z,14.80
2019-03-12T11:27:41.759Z,14.53
2019-03-12T11:30:14.089Z,12.03
2019-03-12T11:32:44.518Z,13.57
2019-03-12T11:35:14.914Z,8.90
2019-03-12T11:37:45.373Z,25.37
2019-03-12T11:40:17.912Z,17.13
2019-03-12T11:42:48.624Z,17.47
2019-03-12T11:45:20.628Z,16.67
2019-03-12T11:47:51.505Z,11.63
2019-03-12T11:50:22.196Z,17.27
2019-03-12T11:52:56.773Z,15.63
2019-03-12T11:55:25.429Z,17.77
2019-03-12T11:57:56.119Z,17.93
2019-03-12T12:00:30.541Z,17.33
2019-03-12T12:03:01.403Z,15.30
2019-03-12T12:05:35.098Z,16.07
2019-03-12T12:08:05.597Z,15.87
2019-03-12T12:10:36.105Z,15.97
2019-03-12T12:13:06.966Z,18.73
2019-03-12T12:15:38.889Z,11.70
2019-03-12T12:18:09.574Z,17.80
2019-03-12T12:20:39.964Z,9.67
2019-03-12T12:23:10.556Z,17.50
2019-03-12T12:25:41.624Z,13.07
2019-03-12T12:28:12.522Z,17.50
2019-03-12T12:30:43.139Z,16.90
2019-03-12T12:33:13.600Z,19.07
2019-03-12T12:35:44.280Z,14.30
2019-03-12T12:38:15.804Z,14.87
2019-03-12T12:40:46.188Z,13.13
2019-03-12T12:43:16.707Z,13.57
2019-03-12T12:45:47.390Z,21.33
2019-03-12T12:48:18.093Z,16.30
2019-03-12T12:51:01.988Z,18.07
2019-03-12T12:53:20.638Z,17.83
2019-03-12T12:55:53.050Z,21.57
2019-03-12T12:58:23.464Z,18.50
2019-03-12T13:00:54.199Z,23.77
2019-03-12T13:03:25.234Z,15.93
2019-03-12T13:05:55.878Z,16.10
2019-03-12T13:08:27.370Z,22.37
2019-03-12T13:10:57.873Z,11.53
2019-03-12T13:13:28.243Z,14.07
2019-03-12T13:15:59.024Z,15.13
2019-03-12T13:18:29.583Z,12.77
2019-03-12T13:21:00.166Z,16.03
2019-03-12T13:23:30.420Z,13.07
2019-03-12T13:26:00.978Z,17.57
2019-03-12T13:28:31.529Z,21.60
2019-03-12T13:31:04.335Z,12.83
2019-03-12T13:33:34.938Z,24.90
2019-03-12T13:36:09.561Z,18.20
2019-03-12T13:38:45.441Z,16.03
2019-03-12T13:41:12.240Z,20.30
2019-03-12T13:43:43.085Z,12.97
2019-03-12T13:46:13.706Z,13.23
2019-03-12T13:48:44.100Z,9.97
2019-03-12T13:51:14.667Z,15.87
2019-03-12T13:53:45.796Z,16.23
2019-03-12T13:56:16.708Z,15.37
2019-03-12T13:58:47.138Z,12.27
2019-03-12T14:01:17.609Z,11.90
2019-03-12T14:03:48.157Z,12.97
2019-03-12T14:06:18.829Z,9.00
2019-03-12T14:08:49.494Z,12.33
2019-03-12T14:11:20.163Z,18.63
2019-03-12T14:13:50.739Z,14.90
2019-03-12T14:16:21.275Z,13.70
2019-03-12T14:19:14.555Z,11.80
2019-03-12T14:21:45.880Z,15.13
2019-03-12T14:24:16.863Z,11.63
2019-03-12T14:26:50.603Z,15.57
2019-03-12T14:29:21.235Z,11.93
2019-03-12T14:31:51.919Z,10.17
2019-03-12T14:34:22.434Z,16.73
2019-03-12T14:36:53.040Z,14.60
2019-03-12T14:39:23.495Z,9.77
2019-03-12T14:41:53.950Z,13.13
2019-03-12T14:44:24.341Z,10.87
2019-03-12T14:46:55.886Z,12.10
2019-03-12T14:49:27.716Z,10.70
2019-03-12T14:52:08.715Z,12.60
2019-03-12T14:54:39.224Z,13.47
2019-03-12T14:57:09.720Z,15.70
2019-03-12T14:59:40.120Z,12.83
2019-03-12T15:02:14.891Z,14.77
2019-03-12T15:04:46.449Z,9.73
2019-03-12T15:07:18.822Z,6.03
2019-03-12T15:09:49.905Z,13.53
2019-03-12T15:12:20.891Z,14.23
2019-03-12T15:14:51.711Z,12.80
2019-03-12T15:17:22.111Z,7.73
2019-03-12T15:19:53.899Z,15.63
2019-03-12T15:22:25.971Z,12.23
2019-03-12T15:24:56.576Z,14.37
2019-03-12T15:27:27.256Z,14.50
2019-03-12T15:30:00.960Z,9.30
2019-03-12T15:32:32.845Z,13.53
2019-03-12T15:35:03.712Z,12.80
2019-03-12T15:37:34.314Z,9.20
2019-03-12T15:40:05.418Z,11.78
2019-03-12T15:42:37.931Z,19.87
2019-03-12T15:45:20.383Z,9.67
2019-03-12T15:47:51.063Z,10.70
2019-03-12T15:50:22.001Z,11.40
2019-03-12T15:52:52.795Z,11.13
2019-03-12T15:55:23.618Z,19.83
2019-03-12T15:57:57.231Z,17.07
2019-03-12T16:00:27.717Z,6.73
2019-03-12T16:02:58.155Z,16.80
2019-03-12T16:05:28.668Z,9.73
2019-03-12T16:07:59.152Z,7.17
2019-03-12T16:10:29.962Z,10.93
2019-03-12T16:13:00.356Z,7.23
2019-03-12T16:15:32.122Z,18.93
2019-03-12T16:18:04.008Z,14.17
2019-03-12T16:20:35.661Z,9.53
2019-03-12T16:23:06.398Z,12.93
2019-03-12T16:25:37.065Z,12.00
2019-03-12T16:28:07.927Z,11.03
2019-03-12T16:30:38.661Z,20.07
2019-03-12T16:33:09.621Z,8.10
2019-03-12T16:35:45.137Z,14.93
2019-03-12T16:38:16.076Z,8.90
2019-03-12T16:40:46.646Z,14.23
2019-03-12T16:43:17.813Z,8.77
2019-03-12T16:45:48.535Z,17.30
2019-03-12T16:48:19.426Z,12.13
2019-03-12T16:50:51.967Z,10.67
2019-03-12T16:53:22.807Z,9.60
2019-03-12T16:55:53.650Z,11.67
2019-03-12T16:58:24.271Z,15.03
2019-03-12T17:00:55.701Z,11.70
2019-03-12T17:03:27.207Z,4.47
2019-03-12T17:06:00.699Z,10.87
2019-03-12T17:08:34.454Z,10.83
2019-03-12T17:11:05.025Z,11.60
2019-03-12T17:13:36.139Z,11.40
2019-03-12T17:16:08.785Z,8.63
2019-03-12T17:18:41.405Z,10.43
2019-03-12T17:21:12.576Z,10.07
2019-03-12T17:24:08.486Z,14.20
2019-03-12T17:26:55.357Z,12.80
2019-03-12T17:29:38.938Z,14.80
2019-03-12T17:32:14.162Z,4.70
2019-03-12T17:34:47.912Z,11.77
2019-03-12T17:37:30.243Z,7.10
2019-03-12T17:40:05.058Z,8.63
2019-03-12T17:42:37.073Z,12.33
2019-03-12T17:45:18.557Z,10.33
2019-03-12T17:48:02.509Z,7.97
2019-03-12T17:50:38.055Z,8.80
2019-03-12T17:53:09.550Z,9.20
2019-03-12T17:55:59.968Z,12.47
2019-03-12T17:58:37.661Z,7.13
2019-03-12T18:01:11.541Z,5.53
2019-03-12T18:03:45.351Z,8.17
2019-03-12T18:06:19.197Z,6.00
2019-03-12T18:08:54.157Z,11.43
2019-03-12T18:11:34.766Z,4.23
2019-03-12T18:14:06.362Z,12.27
2019-03-12T18:16:41.220Z,9.43
2019-03-12T18:19:10.408Z,8.53
2019-03-12T18:21:41.341Z,9.23
2019-03-12T18:24:11.804Z,7.87
2019-03-12T18:26:42.638Z,9.87
2019-03-12T18:29:31.742Z,6.20
2019-03-12T18:32:02.875Z,9.57
2019-03-12T18:34:33.450Z,7.50
2019-03-12T18:37:03.937Z,8.17
2019-03-12T18:39:35.665Z,8.17
2019-03-12T18:42:06.332Z,9.00
2019-03-12T18:44:37.234Z,6.10
2019-03-12T18:47:09.767Z,8.93
2019-03-12T18:49:40.821Z,10.47
2019-03-12T18:52:11.641Z,9.23
2019-03-12T18:54:42.628Z,10.60
2019-03-12T18:57:13.361Z,11.93
2019-03-12T18:59:44.301Z,9.83
2019-03-12T19:02:14.937Z,8.63
2019-03-12T19:04:46.102Z,12.67
2019-03-12T19:07:18.281Z,9.83
2019-03-12T19:09:49.140Z,5.80
2019-03-12T19:12:20.206Z,8.00
2019-03-12T19:14:53.162Z,12.17
2019-03-12T19:17:24.807Z,13.30
2019-03-12T19:19:55.542Z,8.27
2019-03-12T19:22:26.354Z,8.50
2019-03-12T19:24:57.872Z,8.67
2019-03-12T19:27:29.051Z,9.30
2019-03-12T19:29:59.919Z,5.37
2019-03-12T19:32:45.963Z,6.63
2019-03-12T19:35:16.733Z,13.80
2019-03-12T19:37:48.326Z,10.03
2019-03-12T19:40:20.314Z,8.73
2019-03-12T19:42:51.179Z,13.00
2019-03-12T19:45:22.573Z,8.57
2019-03-12T19:47:54.889Z,11.80
2019-03-12T19:50:26.024Z,8.93
2019-03-12T19:53:46.284Z,7.07
2019-03-12T19:56:17.454Z,7.33
2019-03-12T19:59:01.577Z,5.80
2019-03-12T20:01:33.449Z,8.10
2019-03-12T20:04:04.532Z,7.37
2019-03-12T20:06:35.676Z,7.73
2019-03-12T20:09:09.205Z,8.13
2019-03-12T20:12:16.890Z,12.07
2019-03-12T20:15:42.566Z,11.23
2019-03-12T20:18:59.276Z,3.40
2019-03-12T20:22:27.143Z,7.97
2019-03-12T20:25:38.578Z,9.33
2019-03-12T20:32:58.009Z,9.20
2019-03-12T20:36:08.538Z,6.13
2019-03-12T20:39:15.453Z,6.47
2019-03-12T20:42:42.761Z,9.63
2019-03-12T20:45:53.232Z,11.03
2019-03-12T20:49:11.384Z,9.67
2019-03-12T20:52:29.186Z,4.57
2019-03-12T20:55:42.719Z,6.27
2019-03-12T20:59:04.301Z,3.77
2019-03-12T21:02:14.762Z,8.13
2019-03-12T21:05:12.975Z,8.63
2019-03-12T21:08:16.998Z,8.97
2019-03-12T21:11:28.063Z,5.43
2019-03-12T21:14:38.661Z,10.53
2019-03-12T21:17:49.029Z,6.77
2019-03-12T21:20:55.602Z,6.83
2019-03-12T21:24:02.424Z,7.87
2019-03-12T21:27:03.262Z,5.20
2019-03-12T21:29:49.437Z,4.73
2019-03-12T21:32:20.677Z,10.30
2019-03-12T21:34:51.210Z,4.93
2019-03-12T21:37:22.851Z,5.90
2019-03-12T21:39:56.165Z,4.47
2019-03-12T21:42:25.959Z,8.63
2019-03-12T21:44:56.823Z,6.07
2019-03-12T21:47:27.278Z,4.13
2019-03-12T21:49:57.984Z,8.00
2019-03-12T21:52:28.408Z,6.17
2019-03-12T21:54:59.020Z,4.23
2019-03-12T21:57:29.652Z,4.83
2019-03-12T22:00:00.016Z,10.63
2019-03-12T22:02:32.357Z,5.20
2019-03-12T22:05:02.821Z,8.47
2019-03-12T22:07:33.376Z,10.70
2019-03-12T22:10:04.401Z,9.43
2019-03-12T22:12:36.062Z,5.17
2019-03-12T22:15:07.910Z,6.63
2019-03-12T22:17:38.910Z,10.80
2019-03-12T22:20:10.541Z,5.67
2019-03-12T22:22:51.397Z,9.50
2019-03-12T22:25:21.691Z,7.13
2019-03-12T22:27:52.201Z,7.37
2019-03-12T22:30:23.654Z,7.50
2019-03-12T22:32:54.422Z,7.63
2019-03-12T22:35:24.886Z,5.13
2019-03-12T22:37:55.346Z,14.20
2019-03-12T22:40:25.777Z,6.33
2019-03-12T22:42:56.350Z,7.83
2019-03-12T22:45:26.876Z,2.80
2019-03-12T22:47:57.465Z,6.77
2019-03-12T22:50:28.122Z,4.70
2019-03-12T22:52:58.637Z,7.50
2019-03-12T22:55:29.462Z,5.53
2019-03-12T22:57:59.879Z,5.10
2019-03-12T23:00:49.157Z,2.53
2019-03-12T23:03:38.283Z,4.03
2019-03-12T23:06:28.753Z,1.17
2019-03-12T23:09:16.628Z,1.00
2019-03-12T23:11:49.200Z,1.07
2019-03-12T23:14:20.370Z,3.00
2019-03-12T23:16:50.921Z,0.77
2019-03-12T23:19:22.410Z,3.43
2019-03-12T23:21:59.502Z,1.03
2019-03-12T23:24:31.329Z,1.33
2019-03-12T23:27:01.702Z,2.03
2019-03-12T23:29:32.362Z,0.70
2019-03-12T23:32:05.560Z,0.73
2019-03-12T23:34:36.142Z,1.53
2019-03-12T23:37:06.452Z,4.37
2019-03-12T23:39:37.032Z,3.77
2019-03-12T23:42:08.141Z,1.47
2019-03-12T23:44:38.603Z,1.70
2019-03-12T23:47:08.986Z,2.27
2019-03-12T23:49:39.610Z,2.60
2019-03-12T23:52:10.701Z,2.67
2019-03-12T23:54:43.713Z,4.30
2019-03-12T23:57:16.642Z,2.50
2019-03-12T23:59:48.661Z,2.60
